X  Sluiten METAR luchtvaart weer gegevens         LGTS Thessaloniki Macedonia International
Temperatuur
16°C Temperatuur
11°C Dauwpunt
72% Vochtigheid



Wind
3 M/S
6 MPH
9 KM/U
5 KTS



150°
ZZO
Huidig weer

Partly Cloudy Wat bewolking
Luchtdruk 1009 (hPa) - 29.79 (inHg)
Zicht 6 (mijl) - 10 (km)
Vliegveld
Vliegveld code LGTS

Locatie : Thessaloniki Macedonia International
Afstand: 85 (km)

Metar:
METAR LGTS 261320Z 15005KT 110V180 9999 FEW015 SCT030 16/11 Q1009 NOSIG

Tijd: 26-02-2024 15:20 EET